Blackville, Arkansas
Current Conditions -  °F | °C
As of 5:25 PM on Thursday 27 Nov 2014 (Local Time) from KM19 Reporting Station
Light Rain Light Rain  
Wind Chill: 41°   Ceiling: Unl
Heat Index: 41°   Visibility: 2mi
Dew Point: 34°   Wind: 3mph
Humidity: 76%   Direction: 100°E
Pressure: 30.48"   Gusts: NA
Location:  35.5678°N, 91.2073°W
Report Text: KM19 272325Z AUTO 10003KT 2SM -RA CLR 05/01 A3048 RMK AO2 RAB2257 P0000
Loading
Personal Weather Stations






























Interactive Weather Map New forecast layout! Learn more

10-Day Weather Forecast

Advertisements
Track Severe Weather on mobile